Main page
METAR-TAF:

METAR-TAF

Airports :

New Castle Municipal Airport

New Castle, Pennsylvania, United States

latitude: 41-01-31N, longitude: 080-24-48W, elevation: 1069 ft

Current weather observation

The report was made 59 minutes ago, at 19:56 UTC
Wind 12 mph from the North with gusts up to 18 mph
Temperature 52°F
Humidity 43%
Pressure 29.91 in. Hg
Visibility: 10 miles
Few clouds at a height of 8500 ft

METAR: KUCP 011956Z AUTO 36010G16KT 10SM FEW085 11/M01 A2991 RMK AO2 SLP146 T01111011 PNO $

Time: 16:55 (20:55 UTC)


TAF: missing

Weather observations and forecasts of more than 4000 airports (METAR and TAF reports).

The available stations are represented by yellow and red dots on the map.

Hover mouse over dot to see the name of the station.

Then click to see weather observations and forecasts.

To change the map : click on the green buttons with a black cross to zoom in, on the green button with a dash to zoom out, or on the green arrows for adjacent maps.


METAR-TAF: